Main page
Satellite images 15-day forecastsClimateMarine weather Cyclones Lightning AirportsFAQ Newsletter About
Weather : Europe Africa North America South America Asia Australia-Oceania Others
Languages Contact

Gloucester, England

Gloucestershire Airport Staverton

latitude: 51-54N, longitude: 002-10W, elevation: 29 m


METAR: EGBJ 191920Z 23004KT 9999 FEW030 06/03 Q1022
TAF: EGBJ 191657Z 1918/1920 23004KT 9999 FEW030

Time: 21:37 (21:37 UTC)

Current weather observation

The report was made 2 hours and 17 minutes ago, at 19:20 UTC
Wind 4 kt from the Southwest
Temperature 6°C
Humidity 81%
Pressure 1022 hPa
Visibility 10 km or more
Few clouds at a height of 3000 ft

Change units

Forecast

The report was made 4 hours and 40 minutes ago, at 16:57 UTC
Forecast valid from 19 at 18 UTC to 19 at 20 UTC
Wind 4 kt from the Southwest
Visibility 10 km or more
Few clouds at a height of 3000 ft
The information on this site is subject to a disclaimer
Weather : Europe Africa North America South America Asia Australia-Oceania Others
Satellite images 15-day forecastsClimateMarine weather Cyclones Lightning AirportsFAQ Languages Contact Newsletter About